createdAt,value
2022-11-26T00:01:17.628Z,22.63
2022-11-26T00:03:44.907Z,22.58
2022-11-26T00:06:29.665Z,24.63
2022-11-26T00:08:56.334Z,23.92
2022-11-26T00:11:22.900Z,22.23
2022-11-26T00:13:49.530Z,21.83
2022-11-26T00:16:16.263Z,22.42
2022-11-26T00:18:43.195Z,21.95
2022-11-26T00:21:18.826Z,22.30
2022-11-26T00:23:45.457Z,21.92
2022-11-26T00:26:17.139Z,23.25
2022-11-26T00:28:52.618Z,21.77
2022-11-26T00:31:19.458Z,21.53
2022-11-26T00:33:46.592Z,19.85
2022-11-26T00:36:25.261Z,20.00
2022-11-26T00:38:55.094Z,20.48
2022-11-26T00:41:25.523Z,20.98
2022-11-26T00:43:52.261Z,20.40
2022-11-26T00:46:21.474Z,19.50
2022-11-26T00:48:48.389Z,18.88
2022-11-26T00:51:18.792Z,19.65
2022-11-26T00:53:47.802Z,18.30
2022-11-26T00:56:18.702Z,19.50
2022-11-26T00:58:46.885Z,19.33
2022-11-26T01:01:17.542Z,18.52
2022-11-26T01:03:44.445Z,19.75
2022-11-26T01:06:14.759Z,18.33
2022-11-26T01:08:45.330Z,17.70
2022-11-26T01:11:15.593Z,19.08
2022-11-26T01:13:44.600Z,18.30
2022-11-26T01:16:18.954Z,18.15
2022-11-26T01:18:46.776Z,18.52
2022-11-26T01:21:13.949Z,18.55
2022-11-26T01:23:40.645Z,17.98
2022-11-26T01:26:13.549Z,19.00
2022-11-26T01:28:40.155Z,19.73
2022-11-26T01:31:13.733Z,19.42
2022-11-26T01:33:40.392Z,19.80
2022-11-26T01:36:20.443Z,19.38
2022-11-26T01:38:47.181Z,19.63
2022-11-26T01:41:26.966Z,19.10
2022-11-26T01:43:57.845Z,19.95
2022-11-26T01:46:26.430Z,19.65
2022-11-26T01:48:53.626Z,19.63
2022-11-26T01:51:26.544Z,19.30
2022-11-26T01:53:57.283Z,18.95
2022-11-26T01:56:37.209Z,19.02
2022-11-26T01:59:20.168Z,20.27
2022-11-26T02:01:48.810Z,19.48
2022-11-26T02:04:33.007Z,20.73
2022-11-26T02:06:59.657Z,19.20
2022-11-26T02:09:28.099Z,19.70
2022-11-26T02:11:54.851Z,20.65
2022-11-26T02:14:25.414Z,20.60
2022-11-26T02:17:27.088Z,20.90
2022-11-26T02:20:24.266Z,20.50
2022-11-26T02:22:51.803Z,19.40
2022-11-26T02:25:48.827Z,21.33
2022-11-26T02:28:21.194Z,20.25
2022-11-26T02:30:51.240Z,21.23
2022-11-26T02:33:31.078Z,20.85
2022-11-26T02:36:07.441Z,20.42
2022-11-26T02:41:03.696Z,20.23
2022-11-26T02:43:32.264Z,20.52
2022-11-26T02:46:02.649Z,20.30
2022-11-26T02:48:34.403Z,20.35
2022-11-26T02:51:08.379Z,21.40
2022-11-26T02:53:37.075Z,20.90
2022-11-26T02:56:09.521Z,20.60
2022-11-26T02:58:37.057Z,19.17
2022-11-26T03:01:10.612Z,19.77
2022-11-26T03:03:46.426Z,19.65
2022-11-26T03:06:15.866Z,19.20
2022-11-26T03:08:45.081Z,19.52
2022-11-26T03:11:12.115Z,19.88
2022-11-26T03:13:38.761Z,20.05
2022-11-26T03:16:05.609Z,20.85
2022-11-26T03:18:32.352Z,20.17
2022-11-26T03:20:58.943Z,19.45
2022-11-26T03:23:25.537Z,19.48
2022-11-26T03:25:52.118Z,20.45
2022-11-26T03:28:18.755Z,18.38
2022-11-26T03:30:45.402Z,19.75
2022-11-26T03:33:12.110Z,19.92
2022-11-26T03:35:38.743Z,20.50
2022-11-26T03:38:05.377Z,20.38
2022-11-26T03:40:32.096Z,19.35
2022-11-26T03:42:58.736Z,21.30
2022-11-26T03:45:25.358Z,20.65
2022-11-26T03:47:51.949Z,21.35
2022-11-26T03:50:18.866Z,20.88
2022-11-26T03:52:45.484Z,20.15
2022-11-26T03:55:12.081Z,21.05
2022-11-26T03:57:38.973Z,20.45
2022-11-26T04:00:08.878Z,21.17
2022-11-26T04:02:36.661Z,19.45
2022-11-26T04:05:04.324Z,19.77
2022-11-26T04:07:30.982Z,20.25
2022-11-26T04:09:57.574Z,19.60
2022-11-26T04:12:24.115Z,19.15
2022-11-26T04:14:50.744Z,19.70
2022-11-26T04:17:17.324Z,20.65
2022-11-26T04:19:43.893Z,18.08
2022-11-26T04:22:10.533Z,19.48
2022-11-26T04:24:38.607Z,19.67
2022-11-26T04:27:05.302Z,18.55
2022-11-26T04:29:31.987Z,19.25
2022-11-26T04:31:58.667Z,18.05
2022-11-26T04:34:25.329Z,16.98
2022-11-26T04:36:51.868Z,18.10
2022-11-26T04:39:18.518Z,17.90
2022-11-26T04:41:45.380Z,16.75
2022-11-26T04:44:12.064Z,15.60
2022-11-26T04:46:38.773Z,15.70
2022-11-26T04:49:05.356Z,15.27
2022-11-26T04:51:32.107Z,14.15
2022-11-26T04:54:02.692Z,11.88
2022-11-26T04:56:29.975Z,10.85
2022-11-26T04:58:56.576Z,10.95
2022-11-26T05:01:23.172Z,9.10
2022-11-26T05:03:49.784Z,8.98
2022-11-26T05:06:16.595Z,8.25
2022-11-26T05:08:43.335Z,8.27
2022-11-26T05:11:13.176Z,9.00
2022-11-26T05:13:39.765Z,7.93
2022-11-26T05:16:06.814Z,8.48
2022-11-26T05:18:33.465Z,7.50
2022-11-26T05:21:00.064Z,7.63
2022-11-26T05:23:26.841Z,7.85
2022-11-26T05:25:53.497Z,7.00
2022-11-26T05:28:20.094Z,8.07
2022-11-26T05:30:46.721Z,7.43
2022-11-26T05:33:13.411Z,6.93
2022-11-26T05:35:40.030Z,6.80
2022-11-26T05:38:06.742Z,6.65
2022-11-26T05:40:33.394Z,7.28
2022-11-26T05:43:00.023Z,7.40
2022-11-26T05:45:26.693Z,7.30
2022-11-26T05:47:53.293Z,7.18
2022-11-26T05:50:19.905Z,6.53
2022-11-26T05:52:46.497Z,7.07
2022-11-26T05:55:13.112Z,7.28
2022-11-26T05:57:39.747Z,7.78
2022-11-26T06:00:06.999Z,7.05
2022-11-26T06:02:33.672Z,7.22
2022-11-26T06:05:00.375Z,6.93
2022-11-26T06:07:27.100Z,7.60
2022-11-26T06:09:53.861Z,6.57
2022-11-26T06:12:20.584Z,6.15
2022-11-26T06:14:47.315Z,6.18
2022-11-26T06:17:14.060Z,6.28
2022-11-26T06:19:40.670Z,5.72
2022-11-26T06:22:07.496Z,5.95
2022-11-26T06:24:34.240Z,6.25
2022-11-26T06:27:00.930Z,6.05
2022-11-26T06:29:28.317Z,5.90
2022-11-26T06:31:55.290Z,5.85
2022-11-26T06:34:22.215Z,5.28
2022-11-26T06:36:48.858Z,5.50
2022-11-26T06:39:15.488Z,5.72
2022-11-26T06:41:42.176Z,5.68
2022-11-26T06:44:08.774Z,5.55
2022-11-26T06:46:36.092Z,6.22
2022-11-26T06:49:04.493Z,5.78
2022-11-26T06:51:33.260Z,6.07
2022-11-26T06:53:59.968Z,5.85
2022-11-26T06:56:26.614Z,5.00
2022-11-26T06:58:55.366Z,5.82
2022-11-26T07:01:24.891Z,5.57
2022-11-26T07:03:52.105Z,5.80
2022-11-26T07:06:22.826Z,5.90
2022-11-26T07:08:51.009Z,5.32
2022-11-26T07:11:18.748Z,5.72
2022-11-26T07:13:45.407Z,5.75
2022-11-26T07:16:12.484Z,6.20
2022-11-26T07:18:39.432Z,5.95
2022-11-26T07:21:08.908Z,5.68
2022-11-26T07:23:36.077Z,7.18
2022-11-26T07:26:04.145Z,6.68
2022-11-26T07:28:31.489Z,6.03
2022-11-26T07:31:02.861Z,5.95
2022-11-26T07:33:29.863Z,5.95
2022-11-26T07:36:06.829Z,6.22
2022-11-26T07:38:34.890Z,6.40
2022-11-26T07:41:05.576Z,6.80
2022-11-26T07:43:34.908Z,6.43
2022-11-26T07:46:03.670Z,7.65
2022-11-26T07:48:31.670Z,7.50
2022-11-26T07:50:59.318Z,7.32
2022-11-26T07:53:31.470Z,7.80
2022-11-26T07:55:58.237Z,6.75
2022-11-26T07:58:24.863Z,8.13
2022-11-26T08:00:54.597Z,7.93
2022-11-26T08:03:21.654Z,8.60
2022-11-26T08:05:48.193Z,8.77
2022-11-26T08:08:14.824Z,8.45
2022-11-26T08:10:41.442Z,8.43
2022-11-26T08:13:08.073Z,9.13
2022-11-26T08:15:35.527Z,8.63
2022-11-26T08:18:02.132Z,8.13
2022-11-26T08:20:29.331Z,8.88
2022-11-26T08:22:56.059Z,8.23
2022-11-26T08:25:25.073Z,8.55
2022-11-26T08:27:51.707Z,8.90
2022-11-26T08:30:18.304Z,9.73
2022-11-26T08:32:44.929Z,10.75
2022-11-26T08:35:12.193Z,10.60
2022-11-26T08:37:38.792Z,10.57
2022-11-26T08:40:06.409Z,9.30
2022-11-26T08:42:32.977Z,10.60
2022-11-26T08:44:59.541Z,10.18
2022-11-26T08:47:26.136Z,10.10
2022-11-26T08:49:52.848Z,10.50
2022-11-26T08:52:19.437Z,11.75
2022-11-26T08:54:46.366Z,11.75
2022-11-26T08:57:13.239Z,11.60
2022-11-26T08:59:39.819Z,12.80
2022-11-26T09:02:07.982Z,11.90
2022-11-26T09:04:36.904Z,13.18
2022-11-26T09:07:03.870Z,13.50
2022-11-26T09:09:30.466Z,12.40
2022-11-26T09:12:02.338Z,11.80
2022-11-26T09:14:31.507Z,13.25
2022-11-26T09:16:58.661Z,11.88
2022-11-26T09:19:26.929Z,12.38
2022-11-26T09:21:53.631Z,13.45
2022-11-26T09:24:21.343Z,13.13
2022-11-26T09:26:48.999Z,12.35
2022-11-26T09:29:18.367Z,11.77
2022-11-26T09:32:15.284Z,11.45
2022-11-26T09:34:32.662Z,10.63
2022-11-26T09:36:59.254Z,9.45
2022-11-26T09:39:26.466Z,9.23
2022-11-26T09:41:59.467Z,9.65
2022-11-26T09:44:28.092Z,8.50
2022-11-26T09:47:12.189Z,9.35
2022-11-26T09:49:57.272Z,9.38
2022-11-26T09:52:28.490Z,8.35
2022-11-26T09:55:04.275Z,9.63
2022-11-26T09:57:41.217Z,8.18
2022-11-26T10:00:22.346Z,8.05
2022-11-26T10:02:52.126Z,8.15
2022-11-26T10:05:21.389Z,8.00
2022-11-26T10:08:05.721Z,8.27
2022-11-26T10:10:48.495Z,8.25
2022-11-26T10:13:28.376Z,8.15
2022-11-26T10:16:20.608Z,8.15
2022-11-26T10:19:13.727Z,8.52
2022-11-26T10:21:58.569Z,7.85
2022-11-26T10:24:32.100Z,8.05
2022-11-26T10:27:04.274Z,7.82
2022-11-26T10:29:39.198Z,7.55
2022-11-26T10:32:15.810Z,7.20
2022-11-26T10:34:50.906Z,7.57
2022-11-26T10:37:19.280Z,6.80
2022-11-26T10:39:45.972Z,6.75
2022-11-26T10:42:17.916Z,6.35
2022-11-26T10:44:45.644Z,7.43
2022-11-26T10:47:28.085Z,7.00
2022-11-26T10:53:06.258Z,7.78
2022-11-26T10:55:39.557Z,8.52
2022-11-26T10:58:13.918Z,8.30
2022-11-26T11:01:02.427Z,8.73
2022-11-26T11:04:09.346Z,7.85
2022-11-26T11:06:39.773Z,8.60
2022-11-26T11:09:29.031Z,8.45
2022-11-26T11:12:10.868Z,7.78
2022-11-26T11:14:42.998Z,9.15
2022-11-26T11:17:32.142Z,8.52
2022-11-26T11:20:03.420Z,7.88
2022-11-26T11:22:31.223Z,8.00
2022-11-26T11:24:59.816Z,8.45
2022-11-26T11:27:35.793Z,8.95
2022-11-26T11:30:02.946Z,8.25
2022-11-26T11:32:37.534Z,8.80
2022-11-26T11:35:22.415Z,8.05
2022-11-26T11:37:54.641Z,9.45
2022-11-26T11:40:25.550Z,8.10
2022-11-26T11:42:57.513Z,9.15
2022-11-26T11:45:34.824Z,9.02
2022-11-26T11:48:32.176Z,9.82
2022-11-26T11:51:13.428Z,8.35
2022-11-26T11:54:10.525Z,8.88
2022-11-26T11:56:41.849Z,10.98
2022-11-26T11:59:37.014Z,11.20
2022-11-26T12:02:19.010Z,11.52
2022-11-26T12:05:06.586Z,11.18
2022-11-26T12:07:40.836Z,11.40
2022-11-26T12:10:16.606Z,10.90
2022-11-26T12:12:50.780Z,11.52
2022-11-26T12:15:33.656Z,12.10
2022-11-26T12:18:17.025Z,13.10
2022-11-26T12:20:50.422Z,13.52
2022-11-26T12:23:38.317Z,12.63
2022-11-26T12:26:17.126Z,11.75
2022-11-26T12:29:02.047Z,12.63
2022-11-26T12:31:36.752Z,13.00
2022-11-26T12:34:12.728Z,12.55
2022-11-26T12:36:39.469Z,14.20
2022-11-26T12:39:18.841Z,13.50
2022-11-26T12:42:08.504Z,13.32
2022-11-26T12:44:39.572Z,13.75
2022-11-26T12:47:21.666Z,14.05
2022-11-26T12:50:19.451Z,13.52
2022-11-26T12:53:24.039Z,13.35
2022-11-26T12:55:56.956Z,13.38
2022-11-26T12:58:39.011Z,12.93
2022-11-26T13:01:05.782Z,12.70
2022-11-26T13:03:33.677Z,12.45
2022-11-26T13:06:07.659Z,12.60
2022-11-26T13:08:57.277Z,12.45
2022-11-26T13:11:40.010Z,12.85
2022-11-26T13:14:22.185Z,12.32
2022-11-26T13:17:05.107Z,11.95
2022-11-26T13:19:38.286Z,12.48
2022-11-26T13:22:28.655Z,12.32
2022-11-26T13:25:20.046Z,11.82
2022-11-26T13:28:02.104Z,12.82
2022-11-26T13:30:38.196Z,12.95
2022-11-26T13:33:21.906Z,12.18
2022-11-26T13:36:24.199Z,12.07
2022-11-26T13:39:20.752Z,11.20
2022-11-26T13:42:17.909Z,11.57
2022-11-26T13:45:09.855Z,10.25
2022-11-26T13:47:43.733Z,9.57
2022-11-26T13:50:17.363Z,9.07
2022-11-26T13:53:02.232Z,9.10
2022-11-26T13:55:34.519Z,8.52
2022-11-26T13:58:06.275Z,9.25
2022-11-26T14:00:35.469Z,8.38
2022-11-26T14:03:03.467Z,8.45
2022-11-26T14:06:08.154Z,7.63
2022-11-26T14:08:41.451Z,6.28
2022-11-26T14:11:08.938Z,7.35
2022-11-26T14:13:35.806Z,5.30
2022-11-26T14:16:04.757Z,5.28
2022-11-26T14:18:56.595Z,5.88
2022-11-26T14:21:24.083Z,4.80
2022-11-26T14:23:52.731Z,5.10
2022-11-26T14:26:27.175Z,4.90
2022-11-26T14:29:06.411Z,5.57
2022-11-26T14:31:34.712Z,5.90
2022-11-26T14:34:22.044Z,6.07
2022-11-26T14:36:55.427Z,5.93
2022-11-26T14:39:22.883Z,6.25
2022-11-26T14:41:52.104Z,6.20
2022-11-26T14:44:19.755Z,6.55
2022-11-26T14:46:49.023Z,6.75
2022-11-26T14:49:36.841Z,6.38
2022-11-26T14:52:13.899Z,6.85
2022-11-26T14:54:41.278Z,7.20
2022-11-26T14:57:17.050Z,7.68
2022-11-26T15:00:00.280Z,7.13
2022-11-26T15:02:29.313Z,7.95
2022-11-26T15:05:02.477Z,8.65
2022-11-26T15:07:30.651Z,10.60
2022-11-26T15:10:02.596Z,8.68
2022-11-26T15:12:29.904Z,8.55
2022-11-26T15:14:59.949Z,9.13
2022-11-26T15:17:28.710Z,8.95
2022-11-26T15:19:59.976Z,8.57
2022-11-26T15:22:39.129Z,7.88
2022-11-26T15:25:15.569Z,8.10
2022-11-26T15:27:53.105Z,8.40
2022-11-26T15:30:23.216Z,9.23
2022-11-26T15:33:01.347Z,8.88
2022-11-26T15:35:29.281Z,9.38
2022-11-26T15:37:56.019Z,9.23
2022-11-26T15:40:26.629Z,9.52
2022-11-26T15:42:57.848Z,10.07
2022-11-26T15:45:34.809Z,10.20
2022-11-26T15:48:03.448Z,10.35
2022-11-26T15:50:36.785Z,10.90
2022-11-26T15:53:07.592Z,11.27
2022-11-26T15:55:36.927Z,11.55
2022-11-26T15:58:10.735Z,11.05
2022-11-26T16:00:40.703Z,11.00
2022-11-26T16:03:37.921Z,11.45
2022-11-26T16:06:08.480Z,11.75
2022-11-26T16:08:35.300Z,10.90
2022-11-26T16:11:02.877Z,11.10
2022-11-26T16:13:31.756Z,12.18
2022-11-26T16:16:12.822Z,11.32
2022-11-26T16:18:58.951Z,11.02
2022-11-26T16:21:34.351Z,11.93
2022-11-26T16:24:06.531Z,12.13
2022-11-26T16:27:05.080Z,11.48
2022-11-26T16:29:33.659Z,12.85
2022-11-26T16:32:00.234Z,12.38
2022-11-26T16:34:28.045Z,12.05
2022-11-26T16:37:16.449Z,11.77
2022-11-26T16:39:43.065Z,12.48
2022-11-26T16:42:25.111Z,12.10
2022-11-26T16:44:51.785Z,16.30
2022-11-26T16:47:31.510Z,14.18
2022-11-26T16:49:58.247Z,14.43
2022-11-26T16:52:24.916Z,14.82
2022-11-26T16:54:51.669Z,14.25
2022-11-26T16:57:22.680Z,13.40
2022-11-26T16:59:55.687Z,12.73
2022-11-26T17:02:24.148Z,13.35
2022-11-26T17:04:51.143Z,12.57
2022-11-26T17:07:22.907Z,13.32
2022-11-26T17:09:49.755Z,12.80
2022-11-26T17:12:18.931Z,12.70
2022-11-26T17:14:49.124Z,13.05
2022-11-26T17:17:20.619Z,12.32
2022-11-26T17:19:51.009Z,11.77
2022-11-26T17:22:17.683Z,11.38
2022-11-26T17:24:44.366Z,11.63
2022-11-26T17:27:15.254Z,13.30
2022-11-26T17:29:44.412Z,12.25
2022-11-26T17:32:14.080Z,12.75
2022-11-26T17:34:41.151Z,11.90
2022-11-26T17:37:14.302Z,12.47
2022-11-26T17:39:41.364Z,11.52
2022-11-26T17:42:08.296Z,12.20
2022-11-26T17:44:34.983Z,12.63
2022-11-26T17:47:16.322Z,11.48
2022-11-26T17:49:45.315Z,11.75
2022-11-26T17:52:12.349Z,11.35
2022-11-26T17:54:39.428Z,11.48
2022-11-26T17:57:07.741Z,11.68
2022-11-26T17:59:34.350Z,11.45
2022-11-26T18:02:02.737Z,11.25
2022-11-26T18:04:29.920Z,11.25
2022-11-26T18:07:13.525Z,11.35
2022-11-26T18:09:41.969Z,12.45
2022-11-26T18:12:24.847Z,13.98
2022-11-26T18:14:53.756Z,14.27
2022-11-26T18:17:20.628Z,13.68
2022-11-26T18:19:47.567Z,16.67
2022-11-26T18:22:19.939Z,15.52
2022-11-26T18:24:56.454Z,14.52
2022-11-26T18:27:27.119Z,13.80
2022-11-26T18:29:54.045Z,10.48
2022-11-26T18:32:20.952Z,9.93
2022-11-26T18:34:50.112Z,11.05
2022-11-26T18:37:17.340Z,10.88
2022-11-26T18:39:43.962Z,12.25
2022-11-26T18:44:58.063Z,11.15
2022-11-26T18:47:24.901Z,54.17
2022-11-26T18:49:51.610Z,78.95
2022-11-26T18:52:18.200Z,32.75
2022-11-26T18:54:44.980Z,21.17
2022-11-26T18:57:11.608Z,15.02
2022-11-26T18:59:38.519Z,12.52
2022-11-26T19:02:05.481Z,11.52
2022-11-26T19:04:33.092Z,12.00
2022-11-26T19:06:59.706Z,13.68
2022-11-26T19:09:26.376Z,13.82
2022-11-26T19:11:54.447Z,12.60
2022-11-26T19:14:21.390Z,13.05
2022-11-26T19:16:50.374Z,12.50
2022-11-26T19:19:17.815Z,12.45
2022-11-26T19:21:44.538Z,14.13
2022-11-26T19:24:12.662Z,13.50
2022-11-26T19:26:41.256Z,13.38
2022-11-26T19:29:09.391Z,16.60
2022-11-26T19:31:38.909Z,14.45
2022-11-26T19:34:10.037Z,15.40
2022-11-26T19:36:37.519Z,16.10
2022-11-26T19:39:05.814Z,15.93
2022-11-26T19:41:32.849Z,23.60
2022-11-26T19:44:00.842Z,28.08
2022-11-26T19:46:28.140Z,24.92
2022-11-26T19:48:55.806Z,16.85
2022-11-26T19:51:24.491Z,13.10
2022-11-26T19:53:53.959Z,11.75
2022-11-26T19:56:27.826Z,11.13
2022-11-26T19:58:57.895Z,13.40
2022-11-26T20:01:26.753Z,12.55
2022-11-26T20:03:53.455Z,12.13
2022-11-26T20:06:23.183Z,13.13
2022-11-26T20:08:50.357Z,13.00
2022-11-26T20:11:18.419Z,14.48
2022-11-26T20:13:47.104Z,15.57
2022-11-26T20:16:17.822Z,14.57
2022-11-26T20:18:44.974Z,14.68
2022-11-26T20:21:19.666Z,12.10
2022-11-26T20:23:46.667Z,12.77
2022-11-26T20:26:31.577Z,14.10
2022-11-26T20:29:01.766Z,14.95
2022-11-26T20:31:28.838Z,16.02
2022-11-26T20:33:56.106Z,15.48
2022-11-26T20:36:23.844Z,16.02
2022-11-26T20:38:53.442Z,16.30
2022-11-26T20:41:20.205Z,17.27
2022-11-26T20:43:46.887Z,16.02
2022-11-26T20:46:14.517Z,15.35
2022-11-26T20:48:43.504Z,17.50
2022-11-26T20:51:13.618Z,18.42
2022-11-26T20:53:41.328Z,17.75
2022-11-26T20:56:08.906Z,17.90
2022-11-26T20:58:36.149Z,18.92
2022-11-26T21:01:03.009Z,19.63
2022-11-26T21:03:31.106Z,18.75
2022-11-26T21:06:02.817Z,19.27
2022-11-26T21:08:29.971Z,19.08
2022-11-26T21:10:56.836Z,19.08
2022-11-26T21:13:23.491Z,18.80
2022-11-26T21:15:50.272Z,17.92
2022-11-26T21:18:16.928Z,17.20
2022-11-26T21:20:44.461Z,18.33
2022-11-26T21:23:12.526Z,17.23
2022-11-26T21:25:41.122Z,18.25
2022-11-26T21:28:08.643Z,17.65
2022-11-26T21:30:36.181Z,17.42
2022-11-26T21:33:09.055Z,18.83
2022-11-26T21:35:36.758Z,17.77
2022-11-26T21:38:04.872Z,18.20
2022-11-26T21:40:32.047Z,17.30
2022-11-26T21:42:58.680Z,18.67
2022-11-26T21:45:27.557Z,19.00
2022-11-26T21:47:54.290Z,19.52
2022-11-26T21:50:21.219Z,18.95
2022-11-26T21:52:47.879Z,18.15
2022-11-26T21:55:14.728Z,18.20
2022-11-26T21:57:41.372Z,19.08
2022-11-26T22:00:08.653Z,19.90
2022-11-26T22:02:35.422Z,19.90
2022-11-26T22:05:02.082Z,20.15
2022-11-26T22:07:30.235Z,28.40
2022-11-26T22:09:57.788Z,26.65
2022-11-26T22:12:24.469Z,23.38
2022-11-26T22:14:51.177Z,22.05
2022-11-26T22:17:17.878Z,20.55
2022-11-26T22:19:44.544Z,19.40
2022-11-26T22:22:11.148Z,19.88
2022-11-26T22:24:37.859Z,19.42
2022-11-26T22:27:04.485Z,20.15
2022-11-26T22:29:31.133Z,19.65
2022-11-26T22:31:57.825Z,19.63
2022-11-26T22:34:26.485Z,18.92
2022-11-26T22:36:53.152Z,19.42
2022-11-26T22:39:20.170Z,19.92
2022-11-26T22:41:48.702Z,20.27
2022-11-26T22:44:16.738Z,18.40
2022-11-26T22:46:44.288Z,18.23
2022-11-26T22:49:17.764Z,18.13
2022-11-26T22:51:44.516Z,18.33
2022-11-26T22:54:13.597Z,19.98
2022-11-26T22:56:40.680Z,18.50
2022-11-26T22:59:09.053Z,18.27
2022-11-26T23:01:37.212Z,18.10
2022-11-26T23:04:06.931Z,19.13
2022-11-26T23:06:35.362Z,19.40
2022-11-26T23:09:04.917Z,20.75
2022-11-26T23:11:34.984Z,19.00
2022-11-26T23:14:02.233Z,22.52
2022-11-26T23:16:29.263Z,21.35
2022-11-26T23:18:57.237Z,19.23
2022-11-26T23:21:27.155Z,19.40
2022-11-26T23:23:54.834Z,19.15
2022-11-26T23:26:27.502Z,18.10
2022-11-26T23:28:56.304Z,19.33
2022-11-26T23:31:30.394Z,18.63
2022-11-26T23:33:57.718Z,20.27
2022-11-26T23:36:25.655Z,17.73
2022-11-26T23:38:52.365Z,18.95
2022-11-26T23:41:19.221Z,19.88
2022-11-26T23:43:46.061Z,19.30
2022-11-26T23:46:24.094Z,18.45
2022-11-26T23:48:51.714Z,18.52
2022-11-26T23:51:22.334Z,18.92
2022-11-26T23:53:50.674Z,18.27
2022-11-26T23:56:21.468Z,18.15
2022-11-26T23:58:50.119Z,18.20
